createdAt,value
2023-04-25T00:01:05.876Z,97104.00
2023-04-25T00:05:07.796Z,97110.00
2023-04-25T00:09:10.510Z,97115.00
2023-04-25T00:13:12.063Z,97108.00
2023-04-25T00:17:13.409Z,97108.00
2023-04-25T00:21:15.490Z,97121.00
2023-04-25T00:25:16.739Z,97104.00
2023-04-25T00:29:17.869Z,97107.00
2023-04-25T00:33:18.992Z,97108.00
2023-04-25T00:37:20.512Z,97105.00
2023-04-25T00:41:21.625Z,96973.00
2023-04-25T00:45:27.776Z,97100.00
2023-04-25T00:49:28.874Z,97106.00
2023-04-25T00:53:32.488Z,97101.00
2023-04-25T00:57:34.200Z,97105.00
2023-04-25T01:01:36.408Z,97098.00
2023-04-25T01:05:37.727Z,97097.00
2023-04-25T01:09:39.337Z,97110.00
2023-04-25T01:13:40.422Z,97106.00
2023-04-25T01:17:43.131Z,97100.00
2023-04-25T01:21:44.758Z,97091.00
2023-04-25T01:25:46.184Z,97098.00
2023-04-25T01:29:47.764Z,97093.00
2023-04-25T01:33:49.413Z,97091.00
2023-04-25T01:37:52.109Z,97086.00
2023-04-25T01:41:53.269Z,97084.00
2023-04-25T01:45:55.357Z,97087.00
2023-04-25T01:49:56.741Z,97084.00
2023-04-25T01:54:01.092Z,97083.00
2023-04-25T01:58:04.348Z,97084.00
2023-04-25T02:02:05.574Z,97096.00
2023-04-25T02:06:06.626Z,97084.00
2023-04-25T02:10:08.638Z,97091.00
2023-04-25T02:14:10.653Z,97095.00
2023-04-25T02:18:12.693Z,97092.00
2023-04-25T02:22:14.226Z,97097.00
2023-04-25T02:26:15.347Z,97092.00
2023-04-25T02:30:16.482Z,97096.00
2023-04-25T02:34:17.494Z,97085.00
2023-04-25T02:38:18.658Z,96985.00
2023-04-25T02:42:19.733Z,97094.00
2023-04-25T02:46:32.291Z,97084.00
2023-04-25T02:50:23.920Z,97089.00
2023-04-25T02:54:25.200Z,97100.00
2023-04-25T02:58:26.306Z,97088.00
2023-04-25T03:02:27.379Z,97081.00
2023-04-25T03:06:28.957Z,97089.00
2023-04-25T03:10:29.892Z,97090.00
2023-04-25T03:14:31.110Z,97090.00
2023-04-25T03:18:32.911Z,97079.00
2023-04-25T03:22:34.030Z,97088.00
2023-04-25T03:26:34.968Z,97081.00
2023-04-25T03:30:36.309Z,97095.00
2023-04-25T03:34:37.307Z,97084.00
2023-04-25T03:38:38.785Z,97091.00
2023-04-25T03:42:39.887Z,97102.00
2023-04-25T03:46:40.980Z,97104.00
2023-04-25T03:50:41.949Z,97111.00
2023-04-25T03:54:42.917Z,97125.00
2023-04-25T03:58:44.387Z,97124.00
2023-04-25T04:02:45.830Z,97131.00
2023-04-25T04:06:47.044Z,97130.00
2023-04-25T04:10:49.322Z,97125.00
2023-04-25T04:14:50.487Z,97129.00
2023-04-25T04:18:51.592Z,97130.00
2023-04-25T04:22:52.753Z,97132.00
2023-04-25T04:26:54.014Z,97140.00
2023-04-25T04:30:56.029Z,97142.00
2023-04-25T04:34:57.615Z,97146.00
2023-04-25T04:38:58.711Z,97139.00
2023-04-25T04:42:59.859Z,97150.00
2023-04-25T04:47:00.922Z,97147.00
2023-04-25T04:51:01.865Z,97147.00
2023-04-25T04:55:22.870Z,97154.00
2023-04-25T04:59:23.999Z,97163.00
2023-04-25T05:03:25.415Z,97184.00
2023-04-25T05:07:26.478Z,97176.00
2023-04-25T05:11:27.583Z,97176.00
2023-04-25T05:15:28.890Z,97182.00
2023-04-25T05:19:30.102Z,97181.00
2023-04-25T05:23:33.381Z,97175.00
2023-04-25T05:27:34.952Z,97180.00
2023-04-25T05:31:36.832Z,97177.00
2023-04-25T05:35:37.912Z,97181.00
2023-04-25T05:39:39.016Z,97177.00
2023-04-25T05:43:42.118Z,97181.00
2023-04-25T05:47:43.223Z,97198.00
2023-04-25T05:51:44.268Z,97198.00
2023-04-25T05:55:45.484Z,97193.00
2023-04-25T05:59:47.048Z,97194.00
2023-04-25T06:03:48.509Z,97198.00
2023-04-25T06:07:49.851Z,97197.00
2023-04-25T06:11:50.817Z,97198.00
2023-04-25T06:15:51.975Z,97195.00
2023-04-25T06:19:52.887Z,97194.00
2023-04-25T06:23:54.175Z,97192.00
2023-04-25T06:27:55.530Z,97196.00
2023-04-25T06:31:57.677Z,97164.00
2023-04-25T06:35:58.630Z,97200.00
2023-04-25T06:39:59.746Z,97210.00
2023-04-25T06:44:00.675Z,97210.00
2023-04-25T06:48:01.845Z,97199.00
2023-04-25T06:52:03.376Z,97207.00
2023-04-25T06:56:04.935Z,97215.00
2023-04-25T07:00:09.082Z,97212.00
2023-04-25T07:04:10.670Z,97225.00
2023-04-25T07:08:11.750Z,97236.00
2023-04-25T07:12:12.789Z,97240.00
2023-04-25T07:16:14.012Z,97242.00
2023-04-25T07:20:15.598Z,97248.00
2023-04-25T07:24:16.701Z,97256.00
2023-04-25T07:28:19.543Z,97258.00
2023-04-25T07:32:21.000Z,97266.00
2023-04-25T07:36:21.997Z,97271.00
2023-04-25T07:40:23.141Z,97271.00
2023-04-25T07:44:25.852Z,97280.00
2023-04-25T07:48:27.184Z,97275.00
2023-04-25T07:52:28.149Z,97277.00
2023-04-25T07:56:31.806Z,97286.00
2023-04-25T08:00:32.077Z,97294.00
2023-04-25T08:04:33.381Z,97289.00
2023-04-25T08:08:34.580Z,97293.00
2023-04-25T08:12:35.752Z,97300.00
2023-04-25T08:16:36.800Z,97297.00
2023-04-25T08:20:37.900Z,97297.00
2023-04-25T08:24:39.722Z,97298.00
2023-04-25T08:28:40.971Z,97307.00
2023-04-25T08:32:42.335Z,97305.00
2023-04-25T08:36:43.490Z,97313.00
2023-04-25T08:40:44.939Z,97317.00
2023-04-25T08:44:47.994Z,97328.00
2023-04-25T08:48:49.763Z,97333.00
2023-04-25T08:52:53.013Z,97344.00
2023-04-25T08:56:56.169Z,97335.00
2023-04-25T09:00:57.360Z,97342.00
2023-04-25T09:04:58.574Z,97343.00
2023-04-25T09:09:06.231Z,97204.00
2023-04-25T09:13:15.201Z,97348.00
2023-04-25T09:17:19.611Z,97423.00
2023-04-25T09:21:23.029Z,97366.00
2023-04-25T09:25:25.970Z,97367.00
2023-04-25T09:29:35.808Z,97370.00
2023-04-25T09:33:36.918Z,97371.00
2023-04-25T09:37:39.913Z,97381.00
2023-04-25T09:41:41.644Z,97377.00
2023-04-25T09:45:47.747Z,97387.00
2023-04-25T09:49:48.913Z,97402.00
2023-04-25T09:53:53.218Z,97426.00
2023-04-25T09:57:58.312Z,97415.00
2023-04-25T10:01:59.693Z,97437.00
2023-04-25T10:06:04.708Z,97429.00
2023-04-25T10:10:07.012Z,97437.00
2023-04-25T10:14:09.303Z,97443.00
2023-04-25T10:18:10.664Z,97436.00
2023-04-25T10:22:34.572Z,97434.00
2023-04-25T10:26:36.079Z,97443.00
2023-04-25T10:30:37.348Z,97439.00
2023-04-25T10:34:46.053Z,97438.00
2023-04-25T10:38:48.670Z,97422.00
2023-04-25T10:42:49.652Z,97434.00
2023-04-25T10:46:50.860Z,97439.00
2023-04-25T10:51:10.221Z,97443.00
2023-04-25T10:55:22.960Z,97559.00
2023-04-25T10:59:25.668Z,97458.00
2023-04-25T11:03:27.861Z,97446.00
2023-04-25T11:08:06.308Z,97450.00
2023-04-25T11:12:00.708Z,97453.00
2023-04-25T11:16:12.104Z,97449.00
2023-04-25T11:20:11.212Z,97450.00
2023-04-25T11:24:12.542Z,97449.00
2023-04-25T11:28:13.697Z,97441.00
2023-04-25T11:32:19.316Z,97450.00
2023-04-25T11:36:22.913Z,97453.00
2023-04-25T11:40:24.137Z,97460.00
2023-04-25T11:44:26.418Z,97472.00
2023-04-25T11:48:27.562Z,97477.00
2023-04-25T11:52:43.817Z,97483.00
2023-04-25T11:56:46.166Z,97486.00
2023-04-25T12:00:50.411Z,97502.00
2023-04-25T12:04:50.511Z,97503.00
2023-04-25T12:09:05.446Z,97513.00
2023-04-25T12:13:21.812Z,97503.00
2023-04-25T12:17:23.489Z,97495.00
2023-04-25T12:21:26.244Z,97488.00
2023-04-25T12:25:40.602Z,97493.00
2023-04-25T12:33:48.290Z,97483.00
2023-04-25T12:37:49.248Z,97469.00
2023-04-25T12:41:51.497Z,97491.00
2023-04-25T12:45:53.717Z,97488.00
2023-04-25T12:49:55.107Z,97492.00
2023-04-25T12:53:56.427Z,97510.00
2023-04-25T12:57:57.514Z,97519.00
2023-04-25T13:01:58.717Z,97517.00
2023-04-25T13:06:00.184Z,97525.00
2023-04-25T13:10:03.102Z,97518.00
2023-04-25T13:14:05.196Z,97522.00
2023-04-25T13:18:06.202Z,97531.00
2023-04-25T13:22:07.684Z,97515.00
2023-04-25T13:26:08.933Z,97522.00
2023-04-25T13:30:10.538Z,97518.00
2023-04-25T13:34:12.805Z,97525.00
2023-04-25T13:38:14.129Z,97521.00
2023-04-25T13:42:16.451Z,97525.00
2023-04-25T13:50:20.688Z,97538.00
2023-04-25T13:54:21.663Z,97538.00
2023-04-25T13:58:22.826Z,97536.00
2023-04-25T14:02:24.113Z,97540.00
2023-04-25T14:06:25.596Z,97544.00
2023-04-25T14:10:26.564Z,97547.00
2023-04-25T14:14:27.633Z,97550.00
2023-04-25T14:18:28.628Z,97555.00
2023-04-25T14:22:29.766Z,97553.00
2023-04-25T14:26:30.800Z,97555.00
2023-04-25T14:30:31.902Z,97565.00
2023-04-25T14:34:33.020Z,97556.00
2023-04-25T14:38:34.116Z,97565.00
2023-04-25T14:42:35.253Z,97565.00
2023-04-25T14:46:36.958Z,97578.00
2023-04-25T14:50:37.902Z,97577.00
2023-04-25T14:54:38.909Z,97579.00
2023-04-25T14:58:40.687Z,97586.00
2023-04-25T15:02:42.209Z,97604.00
2023-04-25T15:06:43.923Z,97578.00
2023-04-25T15:10:46.252Z,97582.00
2023-04-25T15:14:47.367Z,97587.00
2023-04-25T15:18:48.500Z,97586.00
2023-04-25T15:22:49.485Z,97576.00
2023-04-25T15:26:51.110Z,97598.00
2023-04-25T15:30:52.171Z,97583.00
2023-04-25T15:34:53.095Z,97601.00
2023-04-25T15:38:54.255Z,97595.00
2023-04-25T15:42:55.238Z,97591.00
2023-04-25T15:46:56.161Z,97605.00
2023-04-25T15:50:57.115Z,97601.00
2023-04-25T15:54:58.367Z,97596.00
2023-04-25T15:58:59.323Z,97616.00
2023-04-25T16:03:01.633Z,97609.00
2023-04-25T16:07:03.121Z,97606.00
2023-04-25T16:11:04.719Z,97607.00
2023-04-25T16:15:07.062Z,97603.00
2023-04-25T16:19:08.028Z,97605.00
2023-04-25T16:23:09.015Z,97600.00
2023-04-25T16:27:10.415Z,97605.00
2023-04-25T16:31:11.720Z,97603.00
2023-04-25T16:35:13.198Z,97613.00
2023-04-25T16:39:14.306Z,97618.00
2023-04-25T16:43:17.220Z,97617.00
2023-04-25T16:47:20.200Z,97614.00
2023-04-25T16:51:21.602Z,97614.00
2023-04-25T16:55:22.821Z,97616.00
2023-04-25T16:59:23.788Z,97612.00
2023-04-25T17:03:25.635Z,97618.00
2023-04-25T17:07:27.294Z,97622.00
2023-04-25T17:11:28.325Z,97633.00
2023-04-25T17:15:29.328Z,97647.00
2023-04-25T17:19:31.159Z,97634.00
2023-04-25T17:23:32.258Z,97636.00
2023-04-25T17:27:35.950Z,97645.00
2023-04-25T17:31:37.508Z,97650.00
2023-04-25T17:35:39.724Z,97678.00
2023-04-25T17:39:41.257Z,97657.00
2023-04-25T17:43:42.464Z,97655.00
2023-04-25T17:47:43.842Z,97655.00
2023-04-25T17:51:45.040Z,97667.00
2023-04-25T17:55:46.187Z,97663.00
2023-04-25T17:59:47.321Z,97671.00
2023-04-25T18:03:49.455Z,97679.00
2023-04-25T18:07:50.637Z,97684.00
2023-04-25T18:11:55.722Z,97694.00
2023-04-25T18:15:56.892Z,97696.00
2023-04-25T18:19:58.072Z,97700.00
2023-04-25T18:23:59.229Z,97702.00
2023-04-25T18:28:00.320Z,97709.00
2023-04-25T18:32:01.662Z,97718.00
2023-04-25T18:36:02.912Z,97715.00
2023-04-25T18:40:06.605Z,97721.00
2023-04-25T18:44:07.670Z,97723.00
2023-04-25T18:48:08.732Z,97731.00
2023-04-25T18:52:11.688Z,97740.00
2023-04-25T18:56:15.425Z,97754.00
2023-04-25T19:00:16.793Z,97751.00
2023-04-25T19:04:17.895Z,97765.00
2023-04-25T19:08:20.259Z,97774.00
2023-04-25T19:12:21.390Z,97769.00
2023-04-25T19:16:23.239Z,97772.00
2023-04-25T19:20:24.281Z,97781.00
2023-04-25T19:24:26.420Z,97780.00
2023-04-25T19:28:29.161Z,97787.00
2023-04-25T19:32:30.995Z,97787.00
2023-04-25T19:36:32.234Z,97786.00
2023-04-25T19:40:33.470Z,97795.00
2023-04-25T19:44:35.724Z,97799.00
2023-04-25T19:48:37.210Z,97791.00
2023-04-25T19:52:38.707Z,97792.00
2023-04-25T19:56:39.974Z,97794.00
2023-04-25T20:00:40.976Z,97791.00
2023-04-25T20:04:42.005Z,97801.00
2023-04-25T20:08:43.829Z,97805.00
2023-04-25T20:12:44.927Z,97810.00
2023-04-25T20:16:47.178Z,97814.00
2023-04-25T20:20:48.195Z,97813.00
2023-04-25T20:24:49.175Z,97814.00
2023-04-25T20:28:50.464Z,97808.00
2023-04-25T20:32:51.794Z,97814.00
2023-04-25T20:36:52.720Z,97817.00
2023-04-25T20:40:55.574Z,97816.00
2023-04-25T20:44:56.666Z,97818.00
2023-04-25T20:48:57.746Z,97820.00
2023-04-25T20:52:58.713Z,97825.00
2023-04-25T20:57:00.604Z,97821.00
2023-04-25T21:01:02.677Z,97793.00
2023-04-25T21:05:04.143Z,97813.00
2023-04-25T21:09:06.527Z,97817.00
2023-04-25T21:13:07.859Z,97822.00
2023-04-25T21:17:08.858Z,97834.00
2023-04-25T21:21:10.211Z,97833.00
2023-04-25T21:25:11.203Z,97841.00
2023-04-25T21:29:12.164Z,97835.00
2023-04-25T21:33:13.318Z,97835.00
2023-04-25T21:37:14.237Z,97837.00
2023-04-25T21:41:15.224Z,97834.00
2023-04-25T21:45:16.773Z,97822.00
2023-04-25T21:49:17.727Z,97832.00
2023-04-25T21:53:18.835Z,97826.00
2023-04-25T21:57:23.373Z,97830.00
2023-04-25T22:01:25.240Z,97833.00
2023-04-25T22:05:26.875Z,97847.00
2023-04-25T22:09:28.232Z,97816.00
2023-04-25T22:13:30.007Z,97841.00
2023-04-25T22:17:32.403Z,97864.00
2023-04-25T22:21:33.338Z,97865.00
2023-04-25T22:25:35.035Z,97858.00
2023-04-25T22:29:36.461Z,97862.00
2023-04-25T22:33:37.600Z,97867.00
2023-04-25T22:37:40.364Z,97872.00
2023-04-25T22:41:42.159Z,97883.00
2023-04-25T22:45:43.189Z,97886.00
2023-04-25T22:49:44.816Z,97892.00
2023-04-25T22:53:45.759Z,97886.00
2023-04-25T22:57:46.722Z,97891.00
2023-04-25T23:01:49.686Z,97897.00
2023-04-25T23:05:50.918Z,97891.00
2023-04-25T23:09:51.998Z,97897.00
2023-04-25T23:13:53.159Z,97898.00
2023-04-25T23:17:54.167Z,97898.00
2023-04-25T23:21:55.090Z,97904.00
2023-04-25T23:25:57.109Z,97896.00
2023-04-25T23:29:58.100Z,97902.00
2023-04-25T23:33:59.327Z,97904.00
2023-04-25T23:38:00.643Z,97899.00
2023-04-25T23:42:01.865Z,97910.00
2023-04-25T23:46:02.917Z,97901.00
2023-04-25T23:50:04.742Z,97903.00
2023-04-25T23:54:05.851Z,97910.00
2023-04-25T23:58:07.419Z,97918.00
